sensor_id;sensor_type;location;lat;lon;timestamp;pressure;altitude;pressure_sealevel;temperature;humidity
38054;BME280;23859;50.672;7.164;2023-07-09T00:02:23;46893.88;;;-140.95;56.71
38054;BME280;23859;50.672;7.164;2023-07-09T00:04:49;46877.78;;;-140.95;56.91
38054;BME280;23859;50.672;7.164;2023-07-09T00:07:22;46885.81;;;-140.95;56.50
38054;BME280;23859;50.672;7.164;2023-07-09T00:10:00;46879.78;;;-140.95;55.58
38054;BME280;23859;50.672;7.164;2023-07-09T00:12:27;46895.91;;;-140.95;55.94
38054;BME280;23859;50.672;7.164;2023-07-09T00:14:53;46889.84;;;-140.95;55.49
38054;BME280;23859;50.672;7.164;2023-07-09T00:17:31;46883.81;;;-140.95;56.09
38054;BME280;23859;50.672;7.164;2023-07-09T00:19:59;46881.81;;;-140.95;57.30
38054;BME280;23859;50.672;7.164;2023-07-09T00:22:26;46883.81;;;-140.95;56.78
38054;BME280;23859;50.672;7.164;2023-07-09T00:24:55;46885.81;;;-140.95;57.05
38054;BME280;23859;50.672;7.164;2023-07-09T00:27:25;46889.84;;;-140.95;56.86
38054;BME280;23859;50.672;7.164;2023-07-09T00:29:52;46905.97;;;-140.95;57.65
38054;BME280;23859;50.672;7.164;2023-07-09T00:32:20;46905.97;;;-140.95;56.91
38054;BME280;23859;50.672;7.164;2023-07-09T00:34:47;46897.91;;;-140.95;56.71
38054;BME280;23859;50.672;7.164;2023-07-09T00:37:18;46903.97;;;-140.95;57.41
38054;BME280;23859;50.672;7.164;2023-07-09T00:39:46;46905.97;;;-140.95;56.78
38054;BME280;23859;50.672;7.164;2023-07-09T00:42:15;46905.97;;;-140.95;56.64
38054;BME280;23859;50.672;7.164;2023-07-09T00:44:44;46849.56;;;-140.95;56.90
38054;BME280;23859;50.672;7.164;2023-07-09T00:47:40;46910.00;;;-140.95;57.21
38054;BME280;23859;50.672;7.164;2023-07-09T00:50:19;46895.91;;;-140.95;57.97
38054;BME280;23859;50.672;7.164;2023-07-09T00:53:04;46903.97;;;-140.95;58.02
38054;BME280;23859;50.672;7.164;2023-07-09T00:55:38;46910.00;;;-140.95;58.04
38054;BME280;23859;50.672;7.164;2023-07-09T00:58:09;46893.88;;;-140.95;58.09
38054;BME280;23859;50.672;7.164;2023-07-09T01:00:41;47125.59;;;-140.95;58.43
38054;BME280;23859;50.672;7.164;2023-07-09T01:03:18;46905.97;;;-140.95;58.73
38054;BME280;23859;50.672;7.164;2023-07-09T01:05:47;46914.03;;;-140.95;59.08
38054;BME280;23859;50.672;7.164;2023-07-09T01:08:18;46926.13;;;-140.95;59.59
38054;BME280;23859;50.672;7.164;2023-07-09T01:10:44;46912.03;;;-140.95;60.30
38054;BME280;23859;50.672;7.164;2023-07-09T01:13:10;46918.06;;;-140.95;60.45
38054;BME280;23859;50.672;7.164;2023-07-09T01:15:37;46916.06;;;-140.95;60.57
38054;BME280;23859;50.672;7.164;2023-07-09T01:18:04;46918.06;;;-140.95;61.57
38054;BME280;23859;50.672;7.164;2023-07-09T01:20:30;46918.06;;;-140.95;61.88
38054;BME280;23859;50.672;7.164;2023-07-09T01:22:57;46918.06;;;-140.95;62.88
38054;BME280;23859;50.672;7.164;2023-07-09T01:25:27;46912.03;;;-140.95;62.92
38054;BME280;23859;50.672;7.164;2023-07-09T01:27:54;46938.22;;;-140.95;63.68
38054;BME280;23859;50.672;7.164;2023-07-09T01:30:28;46930.16;;;-140.95;63.27
38054;BME280;23859;50.672;7.164;2023-07-09T01:32:58;46922.09;;;-140.95;63.89
38054;BME280;23859;50.672;7.164;2023-07-09T01:35:24;46934.19;;;-140.95;64.17
38054;BME280;23859;50.672;7.164;2023-07-09T01:37:52;46930.16;;;-140.95;63.63
38054;BME280;23859;50.672;7.164;2023-07-09T01:40:21;46928.13;;;-140.95;64.06
38054;BME280;23859;50.672;7.164;2023-07-09T01:42:49;46932.16;;;-140.95;64.51
38054;BME280;23859;50.672;7.164;2023-07-09T01:45:16;46932.16;;;-140.95;64.65
38054;BME280;23859;50.672;7.164;2023-07-09T01:47:42;46934.19;;;-140.95;64.01
38054;BME280;23859;50.672;7.164;2023-07-09T01:50:10;46934.19;;;-140.95;63.98
38054;BME280;23859;50.672;7.164;2023-07-09T01:52:38;46940.22;;;-140.95;63.81
38054;BME280;23859;50.672;7.164;2023-07-09T01:55:10;46942.25;;;-140.95;64.27
38054;BME280;23859;50.672;7.164;2023-07-09T01:57:36;46950.31;;;-140.95;64.78
38054;BME280;23859;50.672;7.164;2023-07-09T02:00:08;46942.25;;;-140.95;65.05
38054;BME280;23859;50.672;7.164;2023-07-09T02:02:36;46946.28;;;-140.95;65.10
38054;BME280;23859;50.672;7.164;2023-07-09T02:05:05;46946.28;;;-140.95;65.43
38054;BME280;23859;50.672;7.164;2023-07-09T02:07:31;46942.25;;;-140.95;65.42
38054;BME280;23859;50.672;7.164;2023-07-09T02:09:58;46942.25;;;-140.95;65.76
38054;BME280;23859;50.672;7.164;2023-07-09T02:12:25;46950.31;;;-140.95;65.92
38054;BME280;23859;50.672;7.164;2023-07-09T02:14:51;46946.28;;;-140.95;65.95
38054;BME280;23859;50.672;7.164;2023-07-09T02:17:17;46944.25;;;-140.95;65.95
38054;BME280;23859;50.672;7.164;2023-07-09T02:19:43;46952.31;;;-140.95;65.71
38054;BME280;23859;50.672;7.164;2023-07-09T02:22:10;46942.25;;;-140.95;66.17
38054;BME280;23859;50.672;7.164;2023-07-09T02:24:38;46962.41;;;-140.95;65.95
38054;BME280;23859;50.672;7.164;2023-07-09T02:27:06;46966.41;;;-140.95;65.86
38054;BME280;23859;50.672;7.164;2023-07-09T02:29:34;46958.38;;;-140.95;66.40
38054;BME280;23859;50.672;7.164;2023-07-09T02:32:01;46958.38;;;-140.95;66.71
38054;BME280;23859;50.672;7.164;2023-07-09T02:34:27;46946.28;;;-140.95;66.54
38054;BME280;23859;50.672;7.164;2023-07-09T02:36:55;46954.34;;;-140.95;66.92
38054;BME280;23859;50.672;7.164;2023-07-09T02:39:22;46962.41;;;-140.95;66.69
38054;BME280;23859;50.672;7.164;2023-07-09T02:41:49;46962.41;;;-140.95;66.97
38054;BME280;23859;50.672;7.164;2023-07-09T02:44:16;46962.41;;;-140.95;67.28
38054;BME280;23859;50.672;7.164;2023-07-09T02:46:43;46958.38;;;-140.95;67.04
38054;BME280;23859;50.672;7.164;2023-07-09T02:49:11;46942.25;;;-140.95;67.26
38054;BME280;23859;50.672;7.164;2023-07-09T02:51:38;46970.44;;;-140.95;67.24
38054;BME280;23859;50.672;7.164;2023-07-09T02:54:04;46970.44;;;-140.95;67.09
38054;BME280;23859;50.672;7.164;2023-07-09T02:56:30;46982.53;;;-140.95;67.32
38054;BME280;23859;50.672;7.164;2023-07-09T02:58:57;46966.41;;;-140.95;67.84
38054;BME280;23859;50.672;7.164;2023-07-09T03:01:23;46972.47;;;-140.95;67.87
38054;BME280;23859;50.672;7.164;2023-07-09T03:03:54;46962.41;;;-140.95;67.26
38054;BME280;23859;50.672;7.164;2023-07-09T03:06:25;46966.41;;;-140.95;66.57
38054;BME280;23859;50.672;7.164;2023-07-09T03:08:51;46964.41;;;-140.95;66.64
38054;BME280;23859;50.672;7.164;2023-07-09T03:11:19;46968.44;;;-140.95;67.28
38054;BME280;23859;50.672;7.164;2023-07-09T03:13:46;46958.38;;;-140.95;67.67
38054;BME280;23859;50.672;7.164;2023-07-09T03:16:12;46980.53;;;-140.95;66.97
38054;BME280;23859;50.672;7.164;2023-07-09T03:18:39;46970.44;;;-140.95;67.46
38054;BME280;23859;50.672;7.164;2023-07-09T03:21:05;46954.34;;;-140.95;67.41
38054;BME280;23859;50.672;7.164;2023-07-09T03:23:31;46970.44;;;-140.95;67.84
38054;BME280;23859;50.672;7.164;2023-07-09T03:25:57;46978.50;;;-140.95;68.27
38054;BME280;23859;50.672;7.164;2023-07-09T03:28:25;46976.50;;;-140.95;68.19
38054;BME280;23859;50.672;7.164;2023-07-09T03:30:54;46978.50;;;-140.95;68.40
38054;BME280;23859;50.672;7.164;2023-07-09T03:33:21;46986.56;;;-140.95;67.60
38054;BME280;23859;50.672;7.164;2023-07-09T03:35:47;46980.53;;;-140.95;68.14
38054;BME280;23859;50.672;7.164;2023-07-09T03:38:13;46962.41;;;-140.95;67.44
38054;BME280;23859;50.672;7.164;2023-07-09T03:40:39;46970.44;;;-140.95;67.71
38054;BME280;23859;50.672;7.164;2023-07-09T03:43:06;46970.44;;;-140.95;67.67
38054;BME280;23859;50.672;7.164;2023-07-09T03:45:34;46982.53;;;-140.95;67.59
38054;BME280;23859;50.672;7.164;2023-07-09T03:48:02;46986.56;;;-140.95;67.70
38054;BME280;23859;50.672;7.164;2023-07-09T03:50:28;46978.50;;;-140.95;67.97
38054;BME280;23859;50.672;7.164;2023-07-09T03:52:54;46986.56;;;-140.95;67.51
38054;BME280;23859;50.672;7.164;2023-07-09T03:55:20;46978.50;;;-140.95;68.00
38054;BME280;23859;50.672;7.164;2023-07-09T03:57:46;46986.56;;;-140.95;67.79
38054;BME280;23859;50.672;7.164;2023-07-09T04:00:13;46972.47;;;-140.95;67.90
38054;BME280;23859;50.672;7.164;2023-07-09T04:02:40;46970.44;;;-140.95;67.59
38054;BME280;23859;50.672;7.164;2023-07-09T04:05:07;46970.44;;;-140.95;67.98
38054;BME280;23859;50.672;7.164;2023-07-09T04:07:34;46970.44;;;-140.95;67.71
38054;BME280;23859;50.672;7.164;2023-07-09T04:10:01;46982.53;;;-140.95;67.76
38054;BME280;23859;50.672;7.164;2023-07-09T04:12:27;46990.59;;;-140.95;67.74
38054;BME280;23859;50.672;7.164;2023-07-09T04:14:53;46960.38;;;-140.95;67.30
38054;BME280;23859;50.672;7.164;2023-07-09T04:17:19;46970.44;;;-140.95;66.81
38054;BME280;23859;50.672;7.164;2023-07-09T04:19:47;46982.53;;;-140.95;66.79
38054;BME280;23859;50.672;7.164;2023-07-09T04:22:13;46980.53;;;-140.95;66.68
38054;BME280;23859;50.672;7.164;2023-07-09T04:24:40;46978.50;;;-140.95;66.37
38054;BME280;23859;50.672;7.164;2023-07-09T04:27:07;46966.41;;;-140.95;66.33
38054;BME280;23859;50.672;7.164;2023-07-09T04:29:33;46982.53;;;-140.95;66.17
38054;BME280;23859;50.672;7.164;2023-07-09T04:32:05;46950.31;;;-140.95;65.46
38054;BME280;23859;50.672;7.164;2023-07-09T04:34:31;46958.38;;;-140.95;65.38
38054;BME280;23859;50.672;7.164;2023-07-09T04:36:57;46956.34;;;-140.95;65.75
38054;BME280;23859;50.672;7.164;2023-07-09T04:39:24;46974.47;;;-140.95;65.54
38054;BME280;23859;50.672;7.164;2023-07-09T04:41:50;46958.38;;;-140.95;65.20
38054;BME280;23859;50.672;7.164;2023-07-09T04:44:16;46958.38;;;-140.95;65.03
38054;BME280;23859;50.672;7.164;2023-07-09T04:46:42;46954.34;;;-140.95;65.00
38054;BME280;23859;50.672;7.164;2023-07-09T04:49:08;46966.41;;;-140.95;65.23
38054;BME280;23859;50.672;7.164;2023-07-09T04:51:34;46960.38;;;-140.95;64.84
38054;BME280;23859;50.672;7.164;2023-07-09T04:54:00;46930.16;;;-140.95;64.30
38054;BME280;23859;50.672;7.164;2023-07-09T04:56:29;46944.25;;;-140.95;63.79
38054;BME280;23859;50.672;7.164;2023-07-09T04:58:56;46958.38;;;-140.95;63.54
38054;BME280;23859;50.672;7.164;2023-07-09T05:01:23;46954.34;;;-140.95;64.29
38054;BME280;23859;50.672;7.164;2023-07-09T05:03:49;46950.31;;;-140.95;64.28
38054;BME280;23859;50.672;7.164;2023-07-09T05:06:15;46942.25;;;-140.95;63.97
38054;BME280;23859;50.672;7.164;2023-07-09T05:08:41;46930.16;;;-140.95;63.49
38054;BME280;23859;50.672;7.164;2023-07-09T05:11:09;46934.19;;;-140.95;63.28
38054;BME280;23859;50.672;7.164;2023-07-09T05:13:36;46956.34;;;-140.95;63.37
38054;BME280;23859;50.672;7.164;2023-07-09T05:16:02;46942.25;;;-140.95;63.55
38054;BME280;23859;50.672;7.164;2023-07-09T05:18:28;46926.13;;;-140.95;62.94
38054;BME280;23859;50.672;7.164;2023-07-09T05:20:55;46924.09;;;-140.95;62.68
38054;BME280;23859;50.672;7.164;2023-07-09T05:23:23;46926.13;;;-140.95;62.40
38054;BME280;23859;50.672;7.164;2023-07-09T05:25:57;46932.16;;;-140.95;61.62
38054;BME280;23859;50.672;7.164;2023-07-09T05:28:23;46926.13;;;-140.95;61.85
38054;BME280;23859;50.672;7.164;2023-07-09T05:30:49;46910.00;;;-140.95;61.77
38054;BME280;23859;50.672;7.164;2023-07-09T05:33:18;46905.97;;;-140.95;60.29
38054;BME280;23859;50.672;7.164;2023-07-09T05:35:45;46905.97;;;-140.95;60.31
38054;BME280;23859;50.672;7.164;2023-07-09T05:38:12;46901.94;;;-140.95;58.83
38054;BME280;23859;50.672;7.164;2023-07-09T05:40:39;46897.91;;;-140.95;58.86
38054;BME280;23859;50.672;7.164;2023-07-09T05:43:05;47119.56;;;-140.95;58.19
38054;BME280;23859;50.672;7.164;2023-07-09T05:45:31;46885.81;;;-140.95;57.88
38054;BME280;23859;50.672;7.164;2023-07-09T05:47:58;46889.84;;;-140.95;57.94
38054;BME280;23859;50.672;7.164;2023-07-09T05:50:25;46881.81;;;-140.95;57.23
38054;BME280;23859;50.672;7.164;2023-07-09T05:52:51;46869.72;;;-140.95;56.49
38054;BME280;23859;50.672;7.164;2023-07-09T05:55:17;46881.81;;;-140.95;56.26
38054;BME280;23859;50.672;7.164;2023-07-09T05:57:43;46865.69;;;-140.95;56.08
38054;BME280;23859;50.672;7.164;2023-07-09T06:00:10;46865.69;;;-140.95;55.49
38054;BME280;23859;50.672;7.164;2023-07-09T06:02:36;46855.59;;;-140.95;55.37
38054;BME280;23859;50.672;7.164;2023-07-09T06:05:02;46861.66;;;-140.95;55.12
38054;BME280;23859;50.672;7.164;2023-07-09T06:07:28;46867.69;;;-140.95;53.99
38054;BME280;23859;50.672;7.164;2023-07-09T06:09:54;46847.53;;;-140.95;53.92
38054;BME280;23859;50.672;7.164;2023-07-09T06:12:20;46857.63;;;-140.95;53.81
38054;BME280;23859;50.672;7.164;2023-07-09T06:14:47;46861.66;;;-140.95;53.44
38054;BME280;23859;50.672;7.164;2023-07-09T06:17:13;46849.56;;;-140.95;53.35
38054;BME280;23859;50.672;7.164;2023-07-09T06:19:39;46843.50;;;-140.95;51.91
38054;BME280;23859;50.672;7.164;2023-07-09T06:22:05;46825.38;;;-140.95;51.72
38054;BME280;23859;50.672;7.164;2023-07-09T06:24:32;46829.41;;;-140.95;51.04
38054;BME280;23859;50.672;7.164;2023-07-09T06:26:58;46827.41;;;-140.95;49.84
38054;BME280;23859;50.672;7.164;2023-07-09T06:29:25;46811.28;;;-140.95;49.02
38054;BME280;23859;50.672;7.164;2023-07-09T06:31:51;46807.25;;;-140.95;49.92
38054;BME280;23859;50.672;7.164;2023-07-09T06:34:17;46813.28;;;-140.95;49.15
38054;BME280;23859;50.672;7.164;2023-07-09T06:36:43;46805.22;;;-140.95;48.69
38054;BME280;23859;50.672;7.164;2023-07-09T06:39:09;46795.16;;;-140.95;49.04
38054;BME280;23859;50.672;7.164;2023-07-09T06:41:36;46795.16;;;-140.95;48.56
38054;BME280;23859;50.672;7.164;2023-07-09T06:44:08;46797.19;;;-140.95;47.66
38054;BME280;23859;50.672;7.164;2023-07-09T06:46:35;46801.22;;;-140.95;47.68
38054;BME280;23859;50.672;7.164;2023-07-09T06:49:02;46777.03;;;-140.95;47.32
38054;BME280;23859;50.672;7.164;2023-07-09T06:51:28;46805.22;;;-140.95;47.29
38054;BME280;23859;50.672;7.164;2023-07-09T06:53:54;46797.19;;;-140.95;47.35
38054;BME280;23859;50.672;7.164;2023-07-09T06:56:21;46781.06;;;-140.95;46.00
38054;BME280;23859;50.672;7.164;2023-07-09T06:58:47;46766.97;;;-140.95;44.49
38054;BME280;23859;50.672;7.164;2023-07-09T07:01:13;46764.94;;;-140.95;44.22
38054;BME280;23859;50.672;7.164;2023-07-09T07:03:39;46758.91;;;-140.95;44.52
38054;BME280;23859;50.672;7.164;2023-07-09T07:06:06;46754.88;;;-140.95;44.84
38054;BME280;23859;50.672;7.164;2023-07-09T07:08:33;46750.84;;;-140.95;44.46
38054;BME280;23859;50.672;7.164;2023-07-09T07:11:01;46716.59;;;-140.95;43.61
38054;BME280;23859;50.672;7.164;2023-07-09T07:13:34;46722.63;;;-140.95;41.89
38054;BME280;23859;50.672;7.164;2023-07-09T07:16:02;46712.56;;;-140.95;41.58
38054;BME280;23859;50.672;7.164;2023-07-09T07:18:29;46668.22;;;-140.95;39.00
38054;BME280;23859;50.672;7.164;2023-07-09T07:20:55;46599.72;;;-140.95;36.46
38054;BME280;23859;50.672;7.164;2023-07-09T07:23:21;46571.53;;;-140.95;32.45
38054;BME280;23859;50.672;7.164;2023-07-09T07:25:47;46539.28;;;-140.95;29.63
38054;BME280;23859;50.672;7.164;2023-07-09T07:28:14;46490.94;;;-140.95;27.08
38054;BME280;23859;50.672;7.164;2023-07-09T07:30:40;46476.84;;;-140.95;25.63
38054;BME280;23859;50.672;7.164;2023-07-09T07:33:06;46464.75;;;-140.95;24.66
38054;BME280;23859;50.672;7.164;2023-07-09T07:35:33;46446.63;;;-140.95;23.27
38054;BME280;23859;50.672;7.164;2023-07-09T07:37:59;46442.59;;;-140.95;23.52
38054;BME280;23859;50.672;7.164;2023-07-09T07:40:25;46434.53;;;-140.95;22.84
38054;BME280;23859;50.672;7.164;2023-07-09T07:42:51;46446.63;;;-140.95;22.71
38054;BME280;23859;50.672;7.164;2023-07-09T07:45:17;46444.59;;;-140.95;22.82
38054;BME280;23859;50.672;7.164;2023-07-09T07:47:43;46438.56;;;-140.95;22.13
38054;BME280;23859;50.672;7.164;2023-07-09T07:50:10;46446.63;;;-140.95;22.92
38054;BME280;23859;50.672;7.164;2023-07-09T07:52:36;46458.69;;;-140.95;24.21
38054;BME280;23859;50.672;7.164;2023-07-09T07:55:04;46450.66;;;-140.95;22.98
38054;BME280;23859;50.672;7.164;2023-07-09T07:57:30;46442.59;;;-140.95;23.31
38054;BME280;23859;50.672;7.164;2023-07-09T07:59:57;46482.88;;;-140.95;24.22
38054;BME280;23859;50.672;7.164;2023-07-09T08:02:23;46525.19;;;-140.95;26.49
38054;BME280;23859;50.672;7.164;2023-07-09T08:04:50;46555.41;;;-140.95;27.20
38054;BME280;23859;50.672;7.164;2023-07-09T08:07:17;46567.50;;;-140.95;28.51
38054;BME280;23859;50.672;7.164;2023-07-09T08:09:44;46557.41;;;-140.95;28.70
38054;BME280;23859;50.672;7.164;2023-07-09T08:12:10;46581.59;;;-140.95;30.70
38054;BME280;23859;50.672;7.164;2023-07-09T08:14:39;46569.50;;;-140.95;29.83
38054;BME280;23859;50.672;7.164;2023-07-09T08:17:06;46587.66;;;-140.95;30.17
38054;BME280;23859;50.672;7.164;2023-07-09T08:19:43;46591.66;;;-140.95;30.50
38054;BME280;23859;50.672;7.164;2023-07-09T08:22:09;46595.69;;;-140.95;29.92
38054;BME280;23859;50.672;7.164;2023-07-09T08:24:35;46571.53;;;-140.95;29.48
38054;BME280;23859;50.672;7.164;2023-07-09T08:27:01;46573.53;;;-140.95;29.96
38054;BME280;23859;50.672;7.164;2023-07-09T08:29:29;46579.59;;;-140.95;29.97
38054;BME280;23859;50.672;7.164;2023-07-09T08:31:55;46555.41;;;-140.95;28.65
38054;BME280;23859;50.672;7.164;2023-07-09T08:34:21;46525.19;;;-140.95;26.36
38054;BME280;23859;50.672;7.164;2023-07-09T08:36:47;46490.94;;;-140.95;24.75
38054;BME280;23859;50.672;7.164;2023-07-09T08:39:13;46488.94;;;-140.95;24.53
38054;BME280;23859;50.672;7.164;2023-07-09T08:41:48;46478.84;;;-140.95;24.58
38054;BME280;23859;50.672;7.164;2023-07-09T08:50:14;46543.31;;;-140.95;28.27
38054;BME280;23859;50.672;7.164;2023-07-09T08:52:43;46545.34;;;-140.95;28.35
38054;BME280;23859;50.672;7.164;2023-07-09T08:55:15;46535.25;;;-140.95;27.99
38054;BME280;23859;50.672;7.164;2023-07-09T08:57:47;46541.31;;;-140.95;28.92
38054;BME280;23859;50.672;7.164;2023-07-09T09:02:55;46545.34;;;-140.95;28.82
38054;BME280;23859;50.672;7.164;2023-07-09T09:05:24;46551.38;;;-140.95;29.53
38054;BME280;23859;50.672;7.164;2023-07-09T09:07:59;46571.53;;;-140.95;29.36
38054;BME280;23859;50.672;7.164;2023-07-09T09:10:39;46571.53;;;-140.95;29.09
38054;BME280;23859;50.672;7.164;2023-07-09T09:13:15;46563.47;;;-140.95;29.10
38054;BME280;23859;50.672;7.164;2023-07-09T09:15:46;46559.44;;;-140.95;29.39
38054;BME280;23859;50.672;7.164;2023-07-09T09:18:20;46551.38;;;-140.95;28.59
38054;BME280;23859;50.672;7.164;2023-07-09T09:21:50;46543.31;;;-140.95;28.27
38054;BME280;23859;50.672;7.164;2023-07-09T09:23:51;46535.25;;;-140.95;28.14
38054;BME280;23859;50.672;7.164;2023-07-09T09:26:32;46519.16;;;-140.95;27.71
38054;BME280;23859;50.672;7.164;2023-07-09T09:28:59;46499.00;;;-140.95;26.07
38054;BME280;23859;50.672;7.164;2023-07-09T09:31:27;46499.00;;;-140.95;25.29
38054;BME280;23859;50.672;7.164;2023-07-09T09:33:53;46511.09;;;-140.95;26.36
38054;BME280;23859;50.672;7.164;2023-07-09T09:36:25;46519.16;;;-140.95;26.42
38054;BME280;23859;50.672;7.164;2023-07-09T09:38:52;46511.09;;;-140.95;28.20
38054;BME280;23859;50.672;7.164;2023-07-09T09:41:22;46533.25;;;-140.95;27.47
38054;BME280;23859;50.672;7.164;2023-07-09T09:43:51;46529.22;;;-140.95;28.07
38054;BME280;23859;50.672;7.164;2023-07-09T09:46:19;46535.25;;;-140.95;27.88
38054;BME280;23859;50.672;7.164;2023-07-09T09:48:48;46539.28;;;-140.95;28.01
38054;BME280;23859;50.672;7.164;2023-07-09T09:51:16;46527.19;;;-140.95;27.42
38054;BME280;23859;50.672;7.164;2023-07-09T09:53:48;46525.19;;;-140.95;27.60
38054;BME280;23859;50.672;7.164;2023-07-09T09:56:39;46535.25;;;-140.95;27.93
38054;BME280;23859;50.672;7.164;2023-07-09T09:59:05;46535.25;;;-140.95;28.71
38054;BME280;23859;50.672;7.164;2023-07-09T10:01:33;46529.22;;;-140.95;27.22
38054;BME280;23859;50.672;7.164;2023-07-09T10:04:04;46523.16;;;-140.95;27.30
38054;BME280;23859;50.672;7.164;2023-07-09T10:06:43;46533.25;;;-140.95;27.71
38054;BME280;23859;50.672;7.164;2023-07-09T10:12:08;46513.09;;;-140.95;26.88
38054;BME280;23859;50.672;7.164;2023-07-09T10:17:18;46515.13;;;-140.95;27.24
38054;BME280;23859;50.672;7.164;2023-07-09T10:19:57;46507.06;;;-140.95;26.21
38054;BME280;23859;50.672;7.164;2023-07-09T10:22:39;46509.06;;;-140.95;26.39
38054;BME280;23859;50.672;7.164;2023-07-09T10:25:42;46509.06;;;-140.95;25.20
38054;BME280;23859;50.672;7.164;2023-07-09T10:34:28;46501.00;;;-140.95;24.66
38054;BME280;23859;50.672;7.164;2023-07-09T10:37:05;46501.00;;;-140.95;24.48
38054;BME280;23859;50.672;7.164;2023-07-09T10:39:37;46496.97;;;-140.95;24.24
38054;BME280;23859;50.672;7.164;2023-07-09T10:42:06;46499.00;;;-140.95;23.90
38054;BME280;23859;50.672;7.164;2023-07-09T10:44:41;46501.00;;;-140.95;25.45
38054;BME280;23859;50.672;7.164;2023-07-09T10:47:27;46486.91;;;-140.95;24.76
38054;BME280;23859;50.672;7.164;2023-07-09T10:49:55;46505.03;;;-140.95;23.67
38054;BME280;23859;50.672;7.164;2023-07-09T10:52:34;46488.94;;;-140.95;23.22
38054;BME280;23859;50.672;7.164;2023-07-09T10:55:22;46482.88;;;-140.95;23.95
38054;BME280;23859;50.672;7.164;2023-07-09T11:00:53;46486.91;;;-140.95;22.89
38054;BME280;23859;50.672;7.164;2023-07-09T11:03:24;46466.75;;;-140.95;22.28
38054;BME280;23859;50.672;7.164;2023-07-09T11:05:55;46458.69;;;-140.95;21.55
38054;BME280;23859;50.672;7.164;2023-07-09T11:08:31;46454.69;;;-140.95;22.53
38054;BME280;23859;50.672;7.164;2023-07-09T11:11:04;46442.59;;;-140.95;21.68
38054;BME280;23859;50.672;7.164;2023-07-09T11:13:47;46424.47;;;-140.95;20.23
38054;BME280;23859;50.672;7.164;2023-07-09T11:16:20;46414.38;;;-140.95;19.96
38054;BME280;23859;50.672;7.164;2023-07-09T11:18:56;46404.31;;;-140.95;19.69
38054;BME280;23859;50.672;7.164;2023-07-09T11:21:24;46408.34;;;-140.95;19.92
38054;BME280;23859;50.672;7.164;2023-07-09T11:23:53;46374.09;;;-140.95;18.75
38054;BME280;23859;50.672;7.164;2023-07-09T11:26:29;46400.28;;;-140.95;19.04
38054;BME280;23859;50.672;7.164;2023-07-09T11:29:17;46406.31;;;-140.95;19.87
38054;BME280;23859;50.672;7.164;2023-07-09T11:31:45;46398.25;;;-140.95;19.29
38054;BME280;23859;50.672;7.164;2023-07-09T11:34:16;46380.13;;;-140.95;17.73
38054;BME280;23859;50.672;7.164;2023-07-09T11:42:23;46357.97;;;-140.95;18.44
38054;BME280;23859;50.672;7.164;2023-07-09T11:44:51;46323.72;;;-140.95;17.68
38054;BME280;23859;50.672;7.164;2023-07-09T11:47:22;46335.81;;;-140.95;16.47
38054;BME280;23859;50.672;7.164;2023-07-09T11:52:34;46301.56;;;-140.95;15.38
38054;BME280;23859;50.672;7.164;2023-07-09T11:58:01;46408.34;;;-140.95;18.90
38054;BME280;23859;50.672;7.164;2023-07-09T12:00:43;46400.28;;;-140.95;18.11
38054;BME280;23859;50.672;7.164;2023-07-09T12:03:19;46438.56;;;-140.95;18.95
38054;BME280;23859;50.672;7.164;2023-07-09T12:05:54;46414.38;;;-140.95;18.57
38054;BME280;23859;50.672;7.164;2023-07-09T12:08:34;46394.25;;;-140.95;18.11
38054;BME280;23859;50.672;7.164;2023-07-09T12:11:01;46360.00;;;-140.95;17.00
38054;BME280;23859;50.672;7.164;2023-07-09T12:13:27;46394.25;;;-140.95;17.91
38054;BME280;23859;50.672;7.164;2023-07-09T12:15:54;46418.41;;;-140.95;17.99
38054;BME280;23859;50.672;7.164;2023-07-09T12:18:20;46424.47;;;-140.95;18.76
38054;BME280;23859;50.672;7.164;2023-07-09T12:20:52;46450.66;;;-140.95;19.28
38054;BME280;23859;50.672;7.164;2023-07-09T12:23:29;46474.81;;;-140.95;20.70
38054;BME280;23859;50.672;7.164;2023-07-09T12:26:00;46476.84;;;-140.95;20.42
38054;BME280;23859;50.672;7.164;2023-07-09T12:28:27;46476.84;;;-140.95;20.79
38054;BME280;23859;50.672;7.164;2023-07-09T12:30:54;46482.88;;;-140.95;20.81
38054;BME280;23859;50.672;7.164;2023-07-09T12:33:25;46490.94;;;-140.95;21.13
38054;BME280;23859;50.672;7.164;2023-07-09T12:35:58;46486.91;;;-140.95;21.31
38054;BME280;23859;50.672;7.164;2023-07-09T12:38:27;46499.00;;;-140.95;21.80
38054;BME280;23859;50.672;7.164;2023-07-09T12:40:54;46482.88;;;-140.95;21.41
38054;BME280;23859;50.672;7.164;2023-07-09T12:43:27;46496.97;;;-140.95;21.42
38054;BME280;23859;50.672;7.164;2023-07-09T12:45:54;46478.84;;;-140.95;20.60
38054;BME280;23859;50.672;7.164;2023-07-09T12:48:26;46478.84;;;-140.95;21.88
38054;BME280;23859;50.672;7.164;2023-07-09T12:50:58;46456.69;;;-140.95;20.75
38054;BME280;23859;50.672;7.164;2023-07-09T12:53:26;46458.69;;;-140.95;21.41
38054;BME280;23859;50.672;7.164;2023-07-09T12:55:56;46450.66;;;-140.95;19.61
38054;BME280;23859;50.672;7.164;2023-07-09T12:58:29;46446.63;;;-140.95;19.62
38054;BME280;23859;50.672;7.164;2023-07-09T13:00:57;46446.63;;;-140.95;20.16
38054;BME280;23859;50.672;7.164;2023-07-09T13:03:29;46446.63;;;-140.95;19.38
38054;BME280;23859;50.672;7.164;2023-07-09T13:06:03;46452.66;;;-140.95;19.44
38054;BME280;23859;50.672;7.164;2023-07-09T13:08:32;46452.66;;;-140.95;19.65
38054;BME280;23859;50.672;7.164;2023-07-09T13:11:00;46456.69;;;-140.95;19.58
38054;BME280;23859;50.672;7.164;2023-07-09T13:13:26;46456.69;;;-140.95;18.83
38054;BME280;23859;50.672;7.164;2023-07-09T13:15:57;46454.69;;;-140.95;19.01
38054;BME280;23859;50.672;7.164;2023-07-09T13:18:25;46456.69;;;-140.95;19.24
38054;BME280;23859;50.672;7.164;2023-07-09T13:20:53;46456.69;;;-140.95;19.14
38054;BME280;23859;50.672;7.164;2023-07-09T13:23:23;46460.72;;;-140.95;19.38
38054;BME280;23859;50.672;7.164;2023-07-09T13:25:50;46460.72;;;-140.95;19.42